Details From PAFA - FAIRBANKS INTL
To PATA - RALPH M CALHOUN MEM
Flight Number -
Tags generated
Created
Modified
Stats Distance 110 nm / 204 km
Max Altitude 6,000 ft / 1,829 m
Waypoints 3
Social Downloads 0
Likes 0
Share VATSIM

Download

Looking for another format? Having issues loading an existing format? Contact us
Advertisement - Login to hide

Notes

Basic altitude profile: - Ascent Rate: 1500ft/min - Ascent Speed: 190kts - Cruise Altitude: 6000ft - Cruise Speed: 220kts - Descent Rate: 1500ft/min - Descent Speed: 170kts Options: - Use NATs: yes - Use PACOTS: yes - Use low airways: yes - Use high airways: yes

Route

PAFA REEBA PATA

ID Type Via Altitude (ft/m) Position (lat/lon) Dist (leg/tot) Name
O PAFA APT - 0 / 0 64.81391 / -147.85539 - / 0 nm FAIRBANKS INTL
REEBA FIX - 6,000 / 1,829 65.08458 / -151.01461 81 / 81 nm
O PATA APT - 0 / 0 65.17440 / -152.10939 28 / 110 nm RALPH M CALHOUN MEM

Altitude Profile

Advertisement - Login to hide

PAFA

Details ICAO PAFA (FAI)
Name FAIRBANKS INTL
Region USA (Alaska)
Timezone America/Anchorage (UTC-8.0)
Stats Elevation 434 ft / 132 m (AMSL)
Location 64.813900° -147.855000°
Runways 3
Magnetic Variation 17.154° E

METAR

PAFA 210053Z 00000KT 10SM BKN012 BKN055 03/01 A2966

Decode

TAF

TAF PAFA 202332Z 2100/2206 19004KT P6SM VCSH BKN009 OVC060 FM211200 03006KT P6SM VCFG SCT004 BKN007 FM211800 04003KT P6SM BKN250

Decode

Departure Runways

ID Width Length Bearing (true/mag) Surface Threshold Overrun Markings Lighting
01 75 ft / 23 m 2,892 ft / 881 m 38.04° / 20.88° GRAVEL 0 ft / 0 m 0 ft / 0 m VISUAL
01L 150 ft / 46 m 11,767 ft / 3,587 m 38.00° / 20.85° ASPHALT 750 ft / 229 m 0 ft / 0 m PREC-APP CENTERLINE EDGE THRESHOLD ALSF-II
01R 100 ft / 30 m 6,482 ft / 1,976 m 38.01° / 20.86° ASPHALT 0 ft / 0 m 0 ft / 0 m APP EDGE THRESHOLD REIL-OMNI
19 75 ft / 23 m 2,892 ft / 881 m 218.05° / 200.90° GRAVEL 0 ft / 0 m 0 ft / 0 m VISUAL
19L 100 ft / 30 m 6,482 ft / 1,976 m 218.04° / 200.88° ASPHALT 0 ft / 0 m 0 ft / 0 m APP EDGE THRESHOLD REIL-OMNI
19R 150 ft / 46 m 11,767 ft / 3,587 m 218.04° / 200.89° ASPHALT 750 ft / 229 m 0 ft / 0 m PREC-APP CENTERLINE EDGE THRESHOLD MALSR TDZ

PATA

Details ICAO PATA
Name RALPH M CALHOUN MEM
Region USA (Alaska)
Timezone America/Anchorage (UTC-8.0)
Stats Elevation 227 ft / 69 m (AMSL)
Location 65.174400° -152.109000°
Runways 1
Magnetic Variation 15.646° E

METAR

PATA 210052Z 10004KT 10SM FEW015 OVC048 04/02 A2965 RMK AO2 RAB14E45 SLP044 T00390017

Decode

TAF

TAF PATA 202320Z 2100/2124 07005KT P6SM VCSH OVC050

Decode

Destination Runways

ID Width Length Bearing (true/mag) Surface Threshold Overrun Markings Lighting
07 150 ft / 46 m 4,372 ft / 1,333 m 89.30° / 73.65° GRAVEL 0 ft / 0 m 420 ft / 128 m VISUAL EDGE THRESHOLD
25 150 ft / 46 m 4,372 ft / 1,333 m 269.32° / 253.68° GRAVEL 0 ft / 0 m 200 ft / 61 m VISUAL EDGE THRESHOLD

Popular Alternatives